sensor_id;sensor_type;location;lat;lon;timestamp;P1;durP1;ratioP1;P2;durP2;ratioP2
57842;SDS011;43673;51.058;3.734;2023-03-23T00:02:26;4.82;;;3.05;;
57842;SDS011;43673;51.058;3.734;2023-03-23T00:04:52;3.78;;;3.10;;
57842;SDS011;43673;51.058;3.734;2023-03-23T00:07:19;3.13;;;2.80;;
57842;SDS011;43673;51.058;3.734;2023-03-23T00:09:52;4.97;;;2.83;;
57842;SDS011;43673;51.058;3.734;2023-03-23T00:12:20;5.85;;;2.75;;
57842;SDS011;43673;51.058;3.734;2023-03-23T00:14:53;3.85;;;3.42;;
57842;SDS011;43673;51.058;3.734;2023-03-23T00:17:20;3.58;;;3.28;;
57842;SDS011;43673;51.058;3.734;2023-03-23T00:19:46;3.70;;;3.10;;
57842;SDS011;43673;51.058;3.734;2023-03-23T00:22:12;4.57;;;3.28;;
57842;SDS011;43673;51.058;3.734;2023-03-23T00:24:39;5.75;;;3.95;;
57842;SDS011;43673;51.058;3.734;2023-03-23T00:27:05;4.00;;;3.60;;
57842;SDS011;43673;51.058;3.734;2023-03-23T00:29:31;5.82;;;3.50;;
57842;SDS011;43673;51.058;3.734;2023-03-23T00:31:57;4.55;;;2.90;;
57842;SDS011;43673;51.058;3.734;2023-03-23T00:34:23;7.95;;;4.15;;
57842;SDS011;43673;51.058;3.734;2023-03-23T00:36:53;10.23;;;5.05;;
57842;SDS011;43673;51.058;3.734;2023-03-23T00:39:21;5.07;;;3.58;;
57842;SDS011;43673;51.058;3.734;2023-03-23T00:41:49;5.40;;;3.78;;
57842;SDS011;43673;51.058;3.734;2023-03-23T00:44:15;4.57;;;3.95;;
57842;SDS011;43673;51.058;3.734;2023-03-23T00:46:46;6.47;;;3.80;;
57842;SDS011;43673;51.058;3.734;2023-03-23T00:49:18;8.27;;;3.95;;
57842;SDS011;43673;51.058;3.734;2023-03-23T00:51:49;4.75;;;3.70;;
57842;SDS011;43673;51.058;3.734;2023-03-23T00:54:20;4.57;;;3.40;;
57842;SDS011;43673;51.058;3.734;2023-03-23T00:56:46;4.90;;;3.47;;
57842;SDS011;43673;51.058;3.734;2023-03-23T00:59:12;5.70;;;3.38;;
57842;SDS011;43673;51.058;3.734;2023-03-23T01:01:38;5.70;;;3.55;;
57842;SDS011;43673;51.058;3.734;2023-03-23T01:04:04;4.57;;;3.28;;
57842;SDS011;43673;51.058;3.734;2023-03-23T01:06:31;3.67;;;3.00;;
57842;SDS011;43673;51.058;3.734;2023-03-23T01:09:04;4.65;;;3.33;;
57842;SDS011;43673;51.058;3.734;2023-03-23T01:11:32;5.47;;;3.50;;
57842;SDS011;43673;51.058;3.734;2023-03-23T01:13:58;7.78;;;3.30;;
57842;SDS011;43673;51.058;3.734;2023-03-23T01:16:24;8.00;;;2.92;;
57842;SDS011;43673;51.058;3.734;2023-03-23T01:18:50;5.35;;;3.22;;
57842;SDS011;43673;51.058;3.734;2023-03-23T01:21:17;3.78;;;3.25;;
57842;SDS011;43673;51.058;3.734;2023-03-23T01:26:17;3.90;;;2.58;;
57842;SDS011;43673;51.058;3.734;2023-03-23T01:28:46;2.88;;;2.65;;
57842;SDS011;43673;51.058;3.734;2023-03-23T01:31:16;4.07;;;2.95;;
57842;SDS011;43673;51.058;3.734;2023-03-23T01:33:43;8.20;;;3.83;;
57842;SDS011;43673;51.058;3.734;2023-03-23T01:36:14;6.32;;;3.10;;
57842;SDS011;43673;51.058;3.734;2023-03-23T01:38:42;4.60;;;3.63;;
57842;SDS011;43673;51.058;3.734;2023-03-23T01:41:09;4.20;;;2.90;;
57842;SDS011;43673;51.058;3.734;2023-03-23T01:43:36;5.80;;;3.13;;
57842;SDS011;43673;51.058;3.734;2023-03-23T01:46:38;7.43;;;3.00;;
57842;SDS011;43673;51.058;3.734;2023-03-23T01:49:09;4.40;;;3.03;;
57842;SDS011;43673;51.058;3.734;2023-03-23T01:51:41;5.70;;;3.28;;
57842;SDS011;43673;51.058;3.734;2023-03-23T01:54:19;5.38;;;2.40;;
57842;SDS011;43673;51.058;3.734;2023-03-23T01:56:50;5.97;;;2.40;;
57842;SDS011;43673;51.058;3.734;2023-03-23T01:59:22;3.25;;;2.75;;
57842;SDS011;43673;51.058;3.734;2023-03-23T02:01:50;4.47;;;2.80;;
57842;SDS011;43673;51.058;3.734;2023-03-23T02:04:18;5.45;;;2.75;;
57842;SDS011;43673;51.058;3.734;2023-03-23T02:06:46;2.58;;;2.00;;
57842;SDS011;43673;51.058;3.734;2023-03-23T02:09:12;5.20;;;4.20;;
57842;SDS011;43673;51.058;3.734;2023-03-23T02:11:42;5.20;;;2.75;;
57842;SDS011;43673;51.058;3.734;2023-03-23T02:14:08;3.80;;;2.40;;
57842;SDS011;43673;51.058;3.734;2023-03-23T02:33:27;10.10;;;3.22;;
57842;SDS011;43673;51.058;3.734;2023-03-23T02:35:56;6.85;;;2.60;;
57842;SDS011;43673;51.058;3.734;2023-03-23T02:38:30;6.43;;;2.45;;
57842;SDS011;43673;51.058;3.734;2023-03-23T02:41:02;9.20;;;2.80;;
57842;SDS011;43673;51.058;3.734;2023-03-23T02:43:31;6.18;;;2.58;;
57842;SDS011;43673;51.058;3.734;2023-03-23T02:46:03;5.90;;;2.72;;
57842;SDS011;43673;51.058;3.734;2023-03-23T02:48:32;5.35;;;1.95;;
57842;SDS011;43673;51.058;3.734;2023-03-23T02:50:58;6.22;;;2.58;;
57842;SDS011;43673;51.058;3.734;2023-03-23T02:53:26;4.97;;;2.45;;
57842;SDS011;43673;51.058;3.734;2023-03-23T02:55:55;14.63;;;4.47;;
57842;SDS011;43673;51.058;3.734;2023-03-23T02:58:23;8.48;;;2.78;;
57842;SDS011;43673;51.058;3.734;2023-03-23T03:00:50;6.60;;;2.85;;
57842;SDS011;43673;51.058;3.734;2023-03-23T03:03:23;13.20;;;2.53;;
57842;SDS011;43673;51.058;3.734;2023-03-23T03:09:07;9.23;;;3.25;;
57842;SDS011;43673;51.058;3.734;2023-03-23T03:11:46;6.85;;;2.83;;
57842;SDS011;43673;51.058;3.734;2023-03-23T03:14:19;5.32;;;2.78;;
57842;SDS011;43673;51.058;3.734;2023-03-23T03:19:57;4.90;;;2.30;;
57842;SDS011;43673;51.058;3.734;2023-03-23T03:22:35;8.50;;;2.92;;
57842;SDS011;43673;51.058;3.734;2023-03-23T03:25:07;4.68;;;2.40;;
57842;SDS011;43673;51.058;3.734;2023-03-23T03:27:33;6.93;;;2.92;;
57842;SDS011;43673;51.058;3.734;2023-03-23T03:30:00;4.65;;;2.58;;
57842;SDS011;43673;51.058;3.734;2023-03-23T03:32:32;2.88;;;1.98;;
57842;SDS011;43673;51.058;3.734;2023-03-23T03:35:04;7.88;;;3.47;;
57842;SDS011;43673;51.058;3.734;2023-03-23T03:37:37;6.65;;;3.67;;
57842;SDS011;43673;51.058;3.734;2023-03-23T03:40:09;6.28;;;2.40;;
57842;SDS011;43673;51.058;3.734;2023-03-23T03:42:38;4.70;;;2.40;;
57842;SDS011;43673;51.058;3.734;2023-03-23T03:45:05;6.25;;;2.55;;
57842;SDS011;43673;51.058;3.734;2023-03-23T03:47:33;5.30;;;2.47;;
57842;SDS011;43673;51.058;3.734;2023-03-23T03:49:58;8.63;;;2.63;;
57842;SDS011;43673;51.058;3.734;2023-03-23T03:52:24;7.72;;;3.40;;
57842;SDS011;43673;51.058;3.734;2023-03-23T03:54:50;4.15;;;2.33;;
57842;SDS011;43673;51.058;3.734;2023-03-23T03:57:16;7.63;;;2.25;;
57842;SDS011;43673;51.058;3.734;2023-03-23T03:59:42;5.50;;;2.75;;
57842;SDS011;43673;51.058;3.734;2023-03-23T04:02:09;4.57;;;2.92;;
57842;SDS011;43673;51.058;3.734;2023-03-23T04:04:38;6.88;;;2.67;;
57842;SDS011;43673;51.058;3.734;2023-03-23T04:07:05;7.28;;;2.88;;
57842;SDS011;43673;51.058;3.734;2023-03-23T04:09:30;7.38;;;2.38;;
57842;SDS011;43673;51.058;3.734;2023-03-23T04:11:56;5.53;;;3.20;;
57842;SDS011;43673;51.058;3.734;2023-03-23T04:14:22;5.93;;;2.75;;
57842;SDS011;43673;51.058;3.734;2023-03-23T04:16:47;6.93;;;3.10;;
57842;SDS011;43673;51.058;3.734;2023-03-23T04:19:21;7.57;;;3.78;;
57842;SDS011;43673;51.058;3.734;2023-03-23T04:21:50;9.32;;;3.40;;
57842;SDS011;43673;51.058;3.734;2023-03-23T04:24:16;10.13;;;3.00;;
57842;SDS011;43673;51.058;3.734;2023-03-23T04:26:42;5.90;;;3.08;;
57842;SDS011;43673;51.058;3.734;2023-03-23T04:29:09;4.82;;;2.58;;
57842;SDS011;43673;51.058;3.734;2023-03-23T04:31:35;6.28;;;3.83;;
57842;SDS011;43673;51.058;3.734;2023-03-23T04:34:01;8.73;;;2.60;;
57842;SDS011;43673;51.058;3.734;2023-03-23T04:36:27;6.88;;;2.53;;
57842;SDS011;43673;51.058;3.734;2023-03-23T04:38:58;6.47;;;3.42;;
57842;SDS011;43673;51.058;3.734;2023-03-23T04:41:25;8.73;;;3.17;;
57842;SDS011;43673;51.058;3.734;2023-03-23T04:43:51;6.28;;;3.13;;
57842;SDS011;43673;51.058;3.734;2023-03-23T04:46:19;12.95;;;3.20;;
57842;SDS011;43673;51.058;3.734;2023-03-23T04:48:46;6.45;;;3.15;;
57842;SDS011;43673;51.058;3.734;2023-03-23T04:51:12;10.75;;;3.35;;
57842;SDS011;43673;51.058;3.734;2023-03-23T04:53:38;6.88;;;2.67;;
57842;SDS011;43673;51.058;3.734;2023-03-23T04:56:04;12.70;;;3.47;;
57842;SDS011;43673;51.058;3.734;2023-03-23T04:58:30;6.63;;;4.15;;
57842;SDS011;43673;51.058;3.734;2023-03-23T05:00:58;9.10;;;3.58;;
57842;SDS011;43673;51.058;3.734;2023-03-23T05:03:25;11.55;;;3.22;;
57842;SDS011;43673;51.058;3.734;2023-03-23T05:05:52;7.35;;;3.35;;
57842;SDS011;43673;51.058;3.734;2023-03-23T05:08:21;7.97;;;3.70;;
57842;SDS011;43673;51.058;3.734;2023-03-23T05:10:53;13.00;;;3.03;;
57842;SDS011;43673;51.058;3.734;2023-03-23T05:13:20;10.18;;;3.50;;
57842;SDS011;43673;51.058;3.734;2023-03-23T05:15:46;9.40;;;3.17;;
57842;SDS011;43673;51.058;3.734;2023-03-23T05:18:13;18.00;;;4.25;;
57842;SDS011;43673;51.058;3.734;2023-03-23T05:20:39;11.35;;;3.00;;
57842;SDS011;43673;51.058;3.734;2023-03-23T05:23:06;13.82;;;3.97;;
57842;SDS011;43673;51.058;3.734;2023-03-23T05:25:33;9.40;;;3.75;;
57842;SDS011;43673;51.058;3.734;2023-03-23T05:28:04;10.70;;;2.97;;
57842;SDS011;43673;51.058;3.734;2023-03-23T05:30:30;7.90;;;3.85;;
57842;SDS011;43673;51.058;3.734;2023-03-23T05:32:56;7.85;;;3.25;;
57842;SDS011;43673;51.058;3.734;2023-03-23T05:35:21;7.22;;;3.70;;
57842;SDS011;43673;51.058;3.734;2023-03-23T05:37:47;15.73;;;4.15;;
57842;SDS011;43673;51.058;3.734;2023-03-23T05:40:13;13.07;;;4.25;;
57842;SDS011;43673;51.058;3.734;2023-03-23T05:42:39;10.18;;;3.50;;
57842;SDS011;43673;51.058;3.734;2023-03-23T05:45:06;10.88;;;3.30;;
57842;SDS011;43673;51.058;3.734;2023-03-23T05:47:34;6.28;;;2.70;;
57842;SDS011;43673;51.058;3.734;2023-03-23T05:50:01;8.25;;;2.53;;
57842;SDS011;43673;51.058;3.734;2023-03-23T05:52:27;6.65;;;2.45;;
57842;SDS011;43673;51.058;3.734;2023-03-23T05:54:53;5.88;;;2.45;;
57842;SDS011;43673;51.058;3.734;2023-03-23T05:57:18;15.65;;;3.63;;
57842;SDS011;43673;51.058;3.734;2023-03-23T05:59:48;6.77;;;3.13;;
57842;SDS011;43673;51.058;3.734;2023-03-23T06:02:14;8.02;;;3.13;;
57842;SDS011;43673;51.058;3.734;2023-03-23T06:04:40;7.07;;;2.30;;
57842;SDS011;43673;51.058;3.734;2023-03-23T06:07:06;8.38;;;2.65;;
57842;SDS011;43673;51.058;3.734;2023-03-23T06:09:37;8.55;;;2.53;;
57842;SDS011;43673;51.058;3.734;2023-03-23T06:12:03;9.20;;;2.90;;
57842;SDS011;43673;51.058;3.734;2023-03-23T06:14:29;5.03;;;2.22;;
57842;SDS011;43673;51.058;3.734;2023-03-23T06:16:56;7.38;;;2.28;;
57842;SDS011;43673;51.058;3.734;2023-03-23T06:19:22;5.65;;;2.80;;
57842;SDS011;43673;51.058;3.734;2023-03-23T06:21:48;5.60;;;2.20;;
57842;SDS011;43673;51.058;3.734;2023-03-23T06:24:14;8.02;;;2.38;;
57842;SDS011;43673;51.058;3.734;2023-03-23T06:26:40;10.52;;;2.80;;
57842;SDS011;43673;51.058;3.734;2023-03-23T06:29:09;5.35;;;2.70;;
57842;SDS011;43673;51.058;3.734;2023-03-23T06:31:43;5.13;;;2.60;;
57842;SDS011;43673;51.058;3.734;2023-03-23T06:34:12;7.35;;;2.30;;
57842;SDS011;43673;51.058;3.734;2023-03-23T06:36:39;9.50;;;2.70;;
57842;SDS011;43673;51.058;3.734;2023-03-23T06:39:05;8.55;;;3.65;;
57842;SDS011;43673;51.058;3.734;2023-03-23T06:41:31;14.38;;;4.63;;
57842;SDS011;43673;51.058;3.734;2023-03-23T06:43:58;5.28;;;2.13;;
57842;SDS011;43673;51.058;3.734;2023-03-23T06:46:24;9.50;;;4.70;;
57842;SDS011;43673;51.058;3.734;2023-03-23T06:48:51;5.38;;;2.30;;
57842;SDS011;43673;51.058;3.734;2023-03-23T06:51:17;4.70;;;2.10;;
57842;SDS011;43673;51.058;3.734;2023-03-23T06:53:43;10.20;;;3.17;;
57842;SDS011;43673;51.058;3.734;2023-03-23T06:56:09;13.07;;;3.60;;
57842;SDS011;43673;51.058;3.734;2023-03-23T06:58:37;8.05;;;2.55;;
57842;SDS011;43673;51.058;3.734;2023-03-23T07:01:02;5.78;;;2.85;;
57842;SDS011;43673;51.058;3.734;2023-03-23T07:03:29;9.88;;;2.58;;
57842;SDS011;43673;51.058;3.734;2023-03-23T07:05:56;7.50;;;2.83;;
57842;SDS011;43673;51.058;3.734;2023-03-23T07:08:21;8.02;;;2.72;;
57842;SDS011;43673;51.058;3.734;2023-03-23T07:10:47;8.07;;;2.75;;
57842;SDS011;43673;51.058;3.734;2023-03-23T07:15:43;3.45;;;1.80;;
57842;SDS011;43673;51.058;3.734;2023-03-23T07:18:09;8.85;;;2.22;;
57842;SDS011;43673;51.058;3.734;2023-03-23T07:20:35;5.00;;;2.10;;
57842;SDS011;43673;51.058;3.734;2023-03-23T07:23:01;6.65;;;2.17;;
57842;SDS011;43673;51.058;3.734;2023-03-23T07:25:30;11.55;;;2.55;;
57842;SDS011;43673;51.058;3.734;2023-03-23T07:27:57;7.63;;;3.47;;
57842;SDS011;43673;51.058;3.734;2023-03-23T07:30:25;8.73;;;2.58;;
57842;SDS011;43673;51.058;3.734;2023-03-23T07:32:51;7.05;;;2.33;;
57842;SDS011;43673;51.058;3.734;2023-03-23T07:35:17;5.30;;;2.42;;
57842;SDS011;43673;51.058;3.734;2023-03-23T07:37:42;9.32;;;3.13;;
57842;SDS011;43673;51.058;3.734;2023-03-23T07:40:08;5.78;;;2.60;;
57842;SDS011;43673;51.058;3.734;2023-03-23T07:42:44;7.15;;;2.40;;
57842;SDS011;43673;51.058;3.734;2023-03-23T07:45:14;7.03;;;2.85;;
57842;SDS011;43673;51.058;3.734;2023-03-23T07:47:40;6.60;;;2.40;;
57842;SDS011;43673;51.058;3.734;2023-03-23T07:50:07;7.72;;;3.05;;
57842;SDS011;43673;51.058;3.734;2023-03-23T07:52:34;8.18;;;2.72;;
57842;SDS011;43673;51.058;3.734;2023-03-23T07:55:01;7.25;;;3.33;;
57842;SDS011;43673;51.058;3.734;2023-03-23T07:57:28;8.10;;;2.40;;
57842;SDS011;43673;51.058;3.734;2023-03-23T07:59:55;9.32;;;2.63;;
57842;SDS011;43673;51.058;3.734;2023-03-23T08:02:21;5.70;;;2.90;;
57842;SDS011;43673;51.058;3.734;2023-03-23T08:04:47;11.68;;;3.53;;
57842;SDS011;43673;51.058;3.734;2023-03-23T08:07:14;10.00;;;3.50;;
57842;SDS011;43673;51.058;3.734;2023-03-23T08:09:41;6.72;;;2.55;;
57842;SDS011;43673;51.058;3.734;2023-03-23T08:12:07;6.55;;;2.72;;
57842;SDS011;43673;51.058;3.734;2023-03-23T08:14:33;10.27;;;3.22;;
57842;SDS011;43673;51.058;3.734;2023-03-23T08:16:59;8.65;;;2.30;;
57842;SDS011;43673;51.058;3.734;2023-03-23T08:19:25;7.50;;;2.47;;
57842;SDS011;43673;51.058;3.734;2023-03-23T08:21:51;5.15;;;2.35;;
57842;SDS011;43673;51.058;3.734;2023-03-23T08:24:18;6.72;;;3.45;;
57842;SDS011;43673;51.058;3.734;2023-03-23T08:26:44;4.18;;;3.45;;
57842;SDS011;43673;51.058;3.734;2023-03-23T08:29:10;10.40;;;2.28;;
57842;SDS011;43673;51.058;3.734;2023-03-23T08:31:37;5.45;;;2.58;;
57842;SDS011;43673;51.058;3.734;2023-03-23T08:34:04;6.55;;;2.45;;
57842;SDS011;43673;51.058;3.734;2023-03-23T08:36:33;5.63;;;2.33;;
57842;SDS011;43673;51.058;3.734;2023-03-23T08:39:02;11.77;;;3.63;;
57842;SDS011;43673;51.058;3.734;2023-03-23T08:41:30;4.88;;;2.75;;
57842;SDS011;43673;51.058;3.734;2023-03-23T08:43:56;6.28;;;2.95;;
57842;SDS011;43673;51.058;3.734;2023-03-23T08:46:22;6.50;;;2.60;;
57842;SDS011;43673;51.058;3.734;2023-03-23T08:48:48;6.82;;;3.00;;
57842;SDS011;43673;51.058;3.734;2023-03-23T08:51:15;10.50;;;3.22;;
57842;SDS011;43673;51.058;3.734;2023-03-23T08:53:42;6.63;;;3.15;;
57842;SDS011;43673;51.058;3.734;2023-03-23T08:56:09;10.20;;;3.17;;
57842;SDS011;43673;51.058;3.734;2023-03-23T08:58:37;9.32;;;3.42;;
57842;SDS011;43673;51.058;3.734;2023-03-23T09:01:04;9.30;;;3.50;;
57842;SDS011;43673;51.058;3.734;2023-03-23T09:03:32;8.23;;;3.53;;
57842;SDS011;43673;51.058;3.734;2023-03-23T09:06:00;11.93;;;5.63;;
57842;SDS011;43673;51.058;3.734;2023-03-23T09:08:27;7.18;;;3.53;;
57842;SDS011;43673;51.058;3.734;2023-03-23T09:11:04;6.63;;;3.13;;
57842;SDS011;43673;51.058;3.734;2023-03-23T09:13:32;5.80;;;2.75;;
57842;SDS011;43673;51.058;3.734;2023-03-23T09:15:58;11.68;;;3.63;;
57842;SDS011;43673;51.058;3.734;2023-03-23T09:18:23;8.32;;;3.50;;
57842;SDS011;43673;51.058;3.734;2023-03-23T09:20:50;7.30;;;2.47;;
57842;SDS011;43673;51.058;3.734;2023-03-23T09:23:16;11.25;;;3.42;;
57842;SDS011;43673;51.058;3.734;2023-03-23T09:25:42;7.32;;;2.38;;
57842;SDS011;43673;51.058;3.734;2023-03-23T09:28:08;4.10;;;2.30;;
57842;SDS011;43673;51.058;3.734;2023-03-23T09:30:35;8.55;;;2.83;;
57842;SDS011;43673;51.058;3.734;2023-03-23T09:33:03;5.72;;;2.40;;
57842;SDS011;43673;51.058;3.734;2023-03-23T09:35:30;4.72;;;2.38;;
57842;SDS011;43673;51.058;3.734;2023-03-23T09:37:59;4.35;;;2.08;;
57842;SDS011;43673;51.058;3.734;2023-03-23T09:40:26;6.25;;;2.53;;
57842;SDS011;43673;51.058;3.734;2023-03-23T09:43:18;7.13;;;2.40;;
57842;SDS011;43673;51.058;3.734;2023-03-23T09:48:53;7.85;;;2.53;;
57842;SDS011;43673;51.058;3.734;2023-03-23T10:02:10;4.75;;;2.60;;
57842;SDS011;43673;51.058;3.734;2023-03-23T10:04:49;5.25;;;2.72;;
57842;SDS011;43673;51.058;3.734;2023-03-23T10:09:57;5.25;;;3.22;;
57842;SDS011;43673;51.058;3.734;2023-03-23T10:12:33;11.02;;;3.50;;
57842;SDS011;43673;51.058;3.734;2023-03-23T10:15:14;7.97;;;2.50;;
57842;SDS011;43673;51.058;3.734;2023-03-23T10:20:48;8.50;;;3.10;;
57842;SDS011;43673;51.058;3.734;2023-03-23T10:23:33;10.05;;;3.55;;
57842;SDS011;43673;51.058;3.734;2023-03-23T10:29:13;8.18;;;3.05;;
57842;SDS011;43673;51.058;3.734;2023-03-23T10:32:13;9.80;;;4.82;;
57842;SDS011;43673;51.058;3.734;2023-03-23T10:34:44;14.70;;;3.67;;
57842;SDS011;43673;51.058;3.734;2023-03-23T10:37:17;10.82;;;3.60;;
57842;SDS011;43673;51.058;3.734;2023-03-23T10:39:51;10.57;;;4.97;;
57842;SDS011;43673;51.058;3.734;2023-03-23T10:42:26;11.02;;;4.20;;
57842;SDS011;43673;51.058;3.734;2023-03-23T10:44:58;13.20;;;4.65;;
57842;SDS011;43673;51.058;3.734;2023-03-23T10:47:25;12.70;;;3.70;;
57842;SDS011;43673;51.058;3.734;2023-03-23T10:49:56;12.23;;;3.83;;
57842;SDS011;43673;51.058;3.734;2023-03-23T10:52:34;9.43;;;4.20;;
57842;SDS011;43673;51.058;3.734;2023-03-23T10:55:07;10.43;;;4.10;;
57842;SDS011;43673;51.058;3.734;2023-03-23T10:57:35;16.15;;;5.75;;
57842;SDS011;43673;51.058;3.734;2023-03-23T11:00:04;13.02;;;4.80;;
57842;SDS011;43673;51.058;3.734;2023-03-23T11:02:46;12.75;;;5.50;;
57842;SDS011;43673;51.058;3.734;2023-03-23T11:05:24;14.13;;;5.53;;
57842;SDS011;43673;51.058;3.734;2023-03-23T11:07:53;12.55;;;5.05;;
57842;SDS011;43673;51.058;3.734;2023-03-23T11:15:26;9.27;;;4.32;;
57842;SDS011;43673;51.058;3.734;2023-03-23T11:17:58;15.13;;;4.93;;
57842;SDS011;43673;51.058;3.734;2023-03-23T11:20:29;9.65;;;4.25;;
57842;SDS011;43673;51.058;3.734;2023-03-23T11:23:00;13.35;;;5.03;;
57842;SDS011;43673;51.058;3.734;2023-03-23T11:25:32;14.48;;;4.35;;
57842;SDS011;43673;51.058;3.734;2023-03-23T11:28:00;18.20;;;6.05;;
57842;SDS011;43673;51.058;3.734;2023-03-23T11:30:27;14.50;;;5.03;;
57842;SDS011;43673;51.058;3.734;2023-03-23T11:32:58;21.40;;;5.13;;
57842;SDS011;43673;51.058;3.734;2023-03-23T11:35:27;10.73;;;5.00;;
57842;SDS011;43673;51.058;3.734;2023-03-23T11:37:55;11.20;;;5.57;;
57842;SDS011;43673;51.058;3.734;2023-03-23T11:40:24;12.88;;;4.90;;
57842;SDS011;43673;51.058;3.734;2023-03-23T11:48:06;16.40;;;4.17;;
57842;SDS011;43673;51.058;3.734;2023-03-23T11:51:06;12.85;;;4.35;;
57842;SDS011;43673;51.058;3.734;2023-03-23T11:59:02;10.75;;;3.85;;
57842;SDS011;43673;51.058;3.734;2023-03-23T12:04:33;12.35;;;4.10;;
57842;SDS011;43673;51.058;3.734;2023-03-23T12:07:08;11.77;;;4.65;;
57842;SDS011;43673;51.058;3.734;2023-03-23T12:12:50;15.93;;;5.15;;
57842;SDS011;43673;51.058;3.734;2023-03-23T12:48:13;8.35;;;3.85;;
57842;SDS011;43673;51.058;3.734;2023-03-23T12:51:29;10.68;;;4.13;;
57842;SDS011;43673;51.058;3.734;2023-03-23T12:53:33;13.65;;;4.22;;
57842;SDS011;43673;51.058;3.734;2023-03-23T12:56:26;12.00;;;5.00;;
57842;SDS011;43673;51.058;3.734;2023-03-23T12:59:13;9.70;;;4.13;;
57842;SDS011;43673;51.058;3.734;2023-03-23T13:01:57;14.68;;;4.30;;
57842;SDS011;43673;51.058;3.734;2023-03-23T13:04:32;12.98;;;5.28;;
57842;SDS011;43673;51.058;3.734;2023-03-23T13:07:02;15.15;;;4.40;;
57842;SDS011;43673;51.058;3.734;2023-03-23T13:09:39;8.75;;;4.13;;
57842;SDS011;43673;51.058;3.734;2023-03-23T13:12:24;13.90;;;4.55;;
57842;SDS011;43673;51.058;3.734;2023-03-23T13:20:47;22.98;;;5.18;;
57842;SDS011;43673;51.058;3.734;2023-03-23T13:23:26;14.25;;;4.20;;
57842;SDS011;43673;51.058;3.734;2023-03-23T13:26:14;11.82;;;4.22;;
57842;SDS011;43673;51.058;3.734;2023-03-23T13:28:57;13.88;;;4.25;;
57842;SDS011;43673;51.058;3.734;2023-03-23T13:31:34;13.02;;;5.10;;
57842;SDS011;43673;51.058;3.734;2023-03-23T13:34:06;19.10;;;5.35;;
57842;SDS011;43673;51.058;3.734;2023-03-23T13:36:54;19.17;;;4.88;;
57842;SDS011;43673;51.058;3.734;2023-03-23T13:44:41;9.15;;;4.82;;
57842;SDS011;43673;51.058;3.734;2023-03-23T14:03:05;11.73;;;4.40;;
57842;SDS011;43673;51.058;3.734;2023-03-23T14:06:04;17.63;;;4.72;;
57842;SDS011;43673;51.058;3.734;2023-03-23T14:10:58;15.15;;;4.35;;
57842;SDS011;43673;51.058;3.734;2023-03-23T14:16:20;18.10;;;4.90;;
57842;SDS011;43673;51.058;3.734;2023-03-23T14:18:48;7.30;;;3.92;;
57842;SDS011;43673;51.058;3.734;2023-03-23T14:21:34;11.07;;;3.40;;
57842;SDS011;43673;51.058;3.734;2023-03-23T14:24:06;10.48;;;3.33;;
57842;SDS011;43673;51.058;3.734;2023-03-23T14:26:36;16.10;;;4.35;;
57842;SDS011;43673;51.058;3.734;2023-03-23T14:29:03;10.40;;;3.53;;
57842;SDS011;43673;51.058;3.734;2023-03-23T14:31:30;10.52;;;4.00;;
57842;SDS011;43673;51.058;3.734;2023-03-23T14:34:02;10.48;;;3.70;;
57842;SDS011;43673;51.058;3.734;2023-03-23T14:36:31;14.23;;;3.83;;
57842;SDS011;43673;51.058;3.734;2023-03-23T14:39:18;12.00;;;3.65;;
57842;SDS011;43673;51.058;3.734;2023-03-23T14:41:50;8.65;;;3.75;;
57842;SDS011;43673;51.058;3.734;2023-03-23T14:44:19;8.75;;;3.78;;
57842;SDS011;43673;51.058;3.734;2023-03-23T14:46:58;29.90;;;5.70;;
57842;SDS011;43673;51.058;3.734;2023-03-23T14:49:31;8.55;;;3.22;;
57842;SDS011;43673;51.058;3.734;2023-03-23T14:52:03;9.60;;;3.50;;
57842;SDS011;43673;51.058;3.734;2023-03-23T14:54:40;7.10;;;3.33;;
57842;SDS011;43673;51.058;3.734;2023-03-23T14:57:13;14.50;;;4.22;;
57842;SDS011;43673;51.058;3.734;2023-03-23T14:59:45;16.77;;;4.47;;
57842;SDS011;43673;51.058;3.734;2023-03-23T15:02:55;10.43;;;4.32;;
57842;SDS011;43673;51.058;3.734;2023-03-23T15:07:32;14.48;;;4.78;;
57842;SDS011;43673;51.058;3.734;2023-03-23T15:10:00;13.50;;;4.40;;
57842;SDS011;43673;51.058;3.734;2023-03-23T15:12:27;13.50;;;4.40;;
57842;SDS011;43673;51.058;3.734;2023-03-23T15:14:57;7.13;;;3.22;;
57842;SDS011;43673;51.058;3.734;2023-03-23T15:17:29;8.18;;;3.55;;
57842;SDS011;43673;51.058;3.734;2023-03-23T15:20:08;11.10;;;3.78;;
57842;SDS011;43673;51.058;3.734;2023-03-23T15:22:47;11.45;;;3.78;;
57842;SDS011;43673;51.058;3.734;2023-03-23T15:25:18;12.32;;;5.10;;
57842;SDS011;43673;51.058;3.734;2023-03-23T15:27:49;15.30;;;4.35;;
57842;SDS011;43673;51.058;3.734;2023-03-23T15:32:53;11.00;;;3.85;;
57842;SDS011;43673;51.058;3.734;2023-03-23T15:35:24;13.18;;;4.32;;
57842;SDS011;43673;51.058;3.734;2023-03-23T15:37:58;9.40;;;4.63;;
57842;SDS011;43673;51.058;3.734;2023-03-23T15:40:25;11.32;;;4.18;;
57842;SDS011;43673;51.058;3.734;2023-03-23T15:43:06;16.90;;;5.07;;
57842;SDS011;43673;51.058;3.734;2023-03-23T15:45:56;8.13;;;4.05;;
57842;SDS011;43673;51.058;3.734;2023-03-23T15:48:44;13.75;;;5.15;;
57842;SDS011;43673;51.058;3.734;2023-03-23T15:51:19;16.40;;;4.82;;
57842;SDS011;43673;51.058;3.734;2023-03-23T15:53:46;10.15;;;4.60;;
57842;SDS011;43673;51.058;3.734;2023-03-23T15:56:13;13.55;;;4.60;;
57842;SDS011;43673;51.058;3.734;2023-03-23T15:58:39;10.88;;;4.07;;
57842;SDS011;43673;51.058;3.734;2023-03-23T16:01:07;17.10;;;4.70;;
57842;SDS011;43673;51.058;3.734;2023-03-23T16:03:39;9.63;;;4.35;;
57842;SDS011;43673;51.058;3.734;2023-03-23T16:06:09;9.87;;;4.00;;
57842;SDS011;43673;51.058;3.734;2023-03-23T16:08:36;11.35;;;4.47;;
57842;SDS011;43673;51.058;3.734;2023-03-23T16:11:05;17.23;;;4.30;;
57842;SDS011;43673;51.058;3.734;2023-03-23T16:13:32;16.65;;;6.03;;
57842;SDS011;43673;51.058;3.734;2023-03-23T16:15:58;13.65;;;4.90;;
57842;SDS011;43673;51.058;3.734;2023-03-23T16:18:23;16.90;;;4.82;;
57842;SDS011;43673;51.058;3.734;2023-03-23T16:20:50;14.93;;;4.72;;
57842;SDS011;43673;51.058;3.734;2023-03-23T16:23:16;13.45;;;4.47;;
57842;SDS011;43673;51.058;3.734;2023-03-23T16:25:42;12.43;;;4.35;;
57842;SDS011;43673;51.058;3.734;2023-03-23T16:28:11;14.70;;;4.55;;
57842;SDS011;43673;51.058;3.734;2023-03-23T16:30:39;8.98;;;3.90;;
57842;SDS011;43673;51.058;3.734;2023-03-23T16:33:05;14.80;;;3.88;;
57842;SDS011;43673;51.058;3.734;2023-03-23T16:35:31;11.85;;;3.90;;
57842;SDS011;43673;51.058;3.734;2023-03-23T16:37:57;12.45;;;4.50;;
57842;SDS011;43673;51.058;3.734;2023-03-23T16:40:23;12.55;;;4.35;;
57842;SDS011;43673;51.058;3.734;2023-03-23T16:42:49;10.02;;;3.67;;
57842;SDS011;43673;51.058;3.734;2023-03-23T16:45:14;9.52;;;4.25;;
57842;SDS011;43673;51.058;3.734;2023-03-23T16:47:41;11.85;;;3.72;;
57842;SDS011;43673;51.058;3.734;2023-03-23T16:50:09;9.30;;;4.18;;
57842;SDS011;43673;51.058;3.734;2023-03-23T16:52:39;14.73;;;4.70;;
57842;SDS011;43673;51.058;3.734;2023-03-23T16:57:33;12.57;;;3.58;;
57842;SDS011;43673;51.058;3.734;2023-03-23T17:00:01;14.05;;;4.00;;
57842;SDS011;43673;51.058;3.734;2023-03-23T17:02:33;13.77;;;4.22;;
57842;SDS011;43673;51.058;3.734;2023-03-23T17:04:59;9.80;;;4.80;;
57842;SDS011;43673;51.058;3.734;2023-03-23T17:07:25;18.50;;;4.32;;
57842;SDS011;43673;51.058;3.734;2023-03-23T17:09:51;13.75;;;4.47;;
57842;SDS011;43673;51.058;3.734;2023-03-23T17:12:17;9.93;;;4.03;;
57842;SDS011;43673;51.058;3.734;2023-03-23T17:14:43;17.77;;;5.15;;
57842;SDS011;43673;51.058;3.734;2023-03-23T17:17:09;13.25;;;3.97;;
57842;SDS011;43673;51.058;3.734;2023-03-23T17:19:35;10.95;;;4.82;;
57842;SDS011;43673;51.058;3.734;2023-03-23T17:22:00;13.10;;;4.72;;
57842;SDS011;43673;51.058;3.734;2023-03-23T17:24:26;12.75;;;4.85;;